sensor_id;sensor_type;location;lat;lon;timestamp;pressure;altitude;pressure_sealevel;temperature;humidity
35577;BME280;21680;52.400;16.920;2022-12-18T00:03:55;102409.11;;;-5.52;87.88
35577;BME280;21680;52.400;16.920;2022-12-18T00:06:21;102410.48;;;-5.60;87.77
35577;BME280;21680;52.400;16.920;2022-12-18T00:08:47;102413.33;;;-5.62;87.92
35577;BME280;21680;52.400;16.920;2022-12-18T00:11:16;102414.10;;;-5.68;87.70
35577;BME280;21680;52.400;16.920;2022-12-18T00:13:42;102415.91;;;-5.73;87.95
35577;BME280;21680;52.400;16.920;2022-12-18T00:16:11;102413.29;;;-5.76;88.19
35577;BME280;21680;52.400;16.920;2022-12-18T00:18:36;102422.10;;;-5.81;87.84
35577;BME280;21680;52.400;16.920;2022-12-18T00:21:04;102420.34;;;-5.89;88.01
35577;BME280;21680;52.400;16.920;2022-12-18T00:23:30;102423.08;;;-5.93;87.87
35577;BME280;21680;52.400;16.920;2022-12-18T00:26:01;102433.20;;;-5.96;87.75
35577;BME280;21680;52.400;16.920;2022-12-18T00:28:27;102431.67;;;-6.02;87.57
35577;BME280;21680;52.400;16.920;2022-12-18T00:31:04;102428.30;;;-6.10;87.81
35577;BME280;21680;52.400;16.920;2022-12-18T00:33:31;102427.92;;;-6.10;87.91
35577;BME280;21680;52.400;16.920;2022-12-18T00:36:04;102428.20;;;-6.11;87.82
35577;BME280;21680;52.400;16.920;2022-12-18T00:38:30;102431.41;;;-6.13;88.04
35577;BME280;21680;52.400;16.920;2022-12-18T00:40:55;102436.23;;;-6.14;88.00
35577;BME280;21680;52.400;16.920;2022-12-18T00:43:20;102437.42;;;-6.15;88.13
35577;BME280;21680;52.400;16.920;2022-12-18T00:45:45;102436.02;;;-6.18;88.15
35577;BME280;21680;52.400;16.920;2022-12-18T00:48:11;102439.94;;;-6.20;88.08
35577;BME280;21680;52.400;16.920;2022-12-18T00:50:36;102450.77;;;-6.19;88.13
35577;BME280;21680;52.400;16.920;2022-12-18T00:53:01;102454.48;;;-6.22;87.89
35577;BME280;21680;52.400;16.920;2022-12-18T00:55:27;102462.66;;;-6.25;88.09
35577;BME280;21680;52.400;16.920;2022-12-18T00:57:52;102463.34;;;-6.31;87.91
35577;BME280;21680;52.400;16.920;2022-12-18T01:00:18;102463.94;;;-6.36;87.94
35577;BME280;21680;52.400;16.920;2022-12-18T01:02:44;102471.12;;;-6.36;88.04
35577;BME280;21680;52.400;16.920;2022-12-18T01:05:11;102475.16;;;-6.38;88.06
35577;BME280;21680;52.400;16.920;2022-12-18T01:07:37;102481.91;;;-6.38;88.08
35577;BME280;21680;52.400;16.920;2022-12-18T01:10:04;102489.13;;;-6.43;87.93
35577;BME280;21680;52.400;16.920;2022-12-18T01:12:30;102492.95;;;-6.46;87.95
35577;BME280;21680;52.400;16.920;2022-12-18T01:14:56;102494.73;;;-6.52;87.86
35577;BME280;21680;52.400;16.920;2022-12-18T01:17:21;102496.07;;;-6.53;88.14
35577;BME280;21680;52.400;16.920;2022-12-18T01:19:47;102503.09;;;-6.52;88.06
35577;BME280;21680;52.400;16.920;2022-12-18T01:22:12;102498.17;;;-6.56;87.88
35577;BME280;21680;52.400;16.920;2022-12-18T01:24:37;102501.89;;;-6.58;87.97
35577;BME280;21680;52.400;16.920;2022-12-18T01:27:03;102503.19;;;-6.59;88.02
35577;BME280;21680;52.400;16.920;2022-12-18T01:29:28;102506.73;;;-6.64;88.00
35577;BME280;21680;52.400;16.920;2022-12-18T01:31:57;102504.75;;;-6.69;88.01
35577;BME280;21680;52.400;16.920;2022-12-18T01:34:23;102506.48;;;-6.69;88.10
35577;BME280;21680;52.400;16.920;2022-12-18T01:36:49;102502.23;;;-6.70;88.14
35577;BME280;21680;52.400;16.920;2022-12-18T01:39:17;102502.48;;;-6.72;88.18
35577;BME280;21680;52.400;16.920;2022-12-18T01:41:43;102499.89;;;-6.77;88.07
35577;BME280;21680;52.400;16.920;2022-12-18T01:44:54;102501.18;;;-6.79;88.04
35577;BME280;21680;52.400;16.920;2022-12-18T01:49:51;102509.71;;;-6.79;88.23
35577;BME280;21680;52.400;16.920;2022-12-18T01:52:18;102511.61;;;-6.82;88.03
35577;BME280;21680;52.400;16.920;2022-12-18T01:54:46;102512.45;;;-6.86;88.12
35577;BME280;21680;52.400;16.920;2022-12-18T01:57:12;102516.27;;;-6.90;88.14
35577;BME280;21680;52.400;16.920;2022-12-18T01:59:39;102508.98;;;-6.92;88.08
35577;BME280;21680;52.400;16.920;2022-12-18T02:02:06;102516.36;;;-6.97;88.09
35577;BME280;21680;52.400;16.920;2022-12-18T02:04:32;102522.89;;;-6.98;88.01
35577;BME280;21680;52.400;16.920;2022-12-18T02:07:31;102526.39;;;-6.98;88.02
35577;BME280;21680;52.400;16.920;2022-12-18T02:10:08;102536.89;;;-6.99;88.05
35577;BME280;21680;52.400;16.920;2022-12-18T02:12:47;102533.73;;;-7.00;88.09
35577;BME280;21680;52.400;16.920;2022-12-18T02:15:36;102539.36;;;-6.96;88.22
35577;BME280;21680;52.400;16.920;2022-12-18T02:18:08;102539.69;;;-6.93;88.18
35577;BME280;21680;52.400;16.920;2022-12-18T02:20:41;102538.83;;;-6.90;88.24
35577;BME280;21680;52.400;16.920;2022-12-18T02:29:00;102544.27;;;-6.95;88.21
35577;BME280;21680;52.400;16.920;2022-12-18T02:31:31;102545.14;;;-6.95;88.27
35577;BME280;21680;52.400;16.920;2022-12-18T02:34:03;102546.50;;;-6.95;88.20
35577;BME280;21680;52.400;16.920;2022-12-18T02:36:31;102550.15;;;-6.98;88.07
35577;BME280;21680;52.400;16.920;2022-12-18T02:38:58;102549.86;;;-7.03;88.06
35577;BME280;21680;52.400;16.920;2022-12-18T02:41:25;102548.17;;;-7.08;87.97
35577;BME280;21680;52.400;16.920;2022-12-18T02:43:56;102546.54;;;-7.12;87.90
35577;BME280;21680;52.400;16.920;2022-12-18T02:46:32;102556.20;;;-7.16;87.94
35577;BME280;21680;52.400;16.920;2022-12-18T02:49:06;102553.61;;;-7.19;88.11
35577;BME280;21680;52.400;16.920;2022-12-18T02:51:47;102553.83;;;-7.24;88.00
35577;BME280;21680;52.400;16.920;2022-12-18T02:56:57;102551.73;;;-7.25;88.13
35577;BME280;21680;52.400;16.920;2022-12-18T02:59:34;102558.57;;;-7.24;88.13
35577;BME280;21680;52.400;16.920;2022-12-18T03:02:16;102555.70;;;-7.25;88.09
35577;BME280;21680;52.400;16.920;2022-12-18T03:04:53;102557.07;;;-7.34;87.93
35577;BME280;21680;52.400;16.920;2022-12-18T03:07:30;102561.83;;;-7.41;87.89
35577;BME280;21680;52.400;16.920;2022-12-18T03:10:00;102560.41;;;-7.51;87.89
35577;BME280;21680;52.400;16.920;2022-12-18T03:12:35;102562.92;;;-7.55;88.09
35577;BME280;21680;52.400;16.920;2022-12-18T03:15:17;102566.05;;;-7.55;88.14
35577;BME280;21680;52.400;16.920;2022-12-18T03:17:57;102568.10;;;-7.53;88.27
35577;BME280;21680;52.400;16.920;2022-12-18T03:20:25;102572.73;;;-7.51;88.22
35577;BME280;21680;52.400;16.920;2022-12-18T03:22:57;102574.69;;;-7.53;88.15
35577;BME280;21680;52.400;16.920;2022-12-18T03:25:25;102572.02;;;-7.54;88.39
35577;BME280;21680;52.400;16.920;2022-12-18T03:27:55;102571.40;;;-7.50;88.41
35577;BME280;21680;52.400;16.920;2022-12-18T03:30:23;102574.14;;;-7.44;88.30
35577;BME280;21680;52.400;16.920;2022-12-18T03:35:41;102575.91;;;-7.38;88.40
35577;BME280;21680;52.400;16.920;2022-12-18T03:38:08;102581.10;;;-7.41;88.31
35577;BME280;21680;52.400;16.920;2022-12-18T03:43:40;102589.08;;;-7.44;88.37
35577;BME280;21680;52.400;16.920;2022-12-18T03:48:42;102592.84;;;-7.54;88.35
35577;BME280;21680;52.400;16.920;2022-12-18T03:51:10;102592.95;;;-7.55;88.36
35577;BME280;21680;52.400;16.920;2022-12-18T03:53:47;102592.23;;;-7.56;88.31
35577;BME280;21680;52.400;16.920;2022-12-18T03:56:16;102592.05;;;-7.53;88.49
35577;BME280;21680;52.400;16.920;2022-12-18T03:58:43;102591.35;;;-7.50;88.56
35577;BME280;21680;52.400;16.920;2022-12-18T04:01:12;102593.84;;;-7.49;88.58
35577;BME280;21680;52.400;16.920;2022-12-18T04:03:39;102593.07;;;-7.47;88.53
35577;BME280;21680;52.400;16.920;2022-12-18T04:06:06;102595.23;;;-7.46;88.51
35577;BME280;21680;52.400;16.920;2022-12-18T04:08:32;102593.83;;;-7.46;88.45
35577;BME280;21680;52.400;16.920;2022-12-18T04:11:00;102593.48;;;-7.46;88.42
35577;BME280;21680;52.400;16.920;2022-12-18T04:13:33;102594.80;;;-7.44;88.56
35577;BME280;21680;52.400;16.920;2022-12-18T04:16:00;102595.56;;;-7.43;88.52
35577;BME280;21680;52.400;16.920;2022-12-18T04:18:26;102598.55;;;-7.40;88.59
35577;BME280;21680;52.400;16.920;2022-12-18T04:20:51;102602.77;;;-7.36;88.68
35577;BME280;21680;52.400;16.920;2022-12-18T04:23:16;102608.50;;;-7.36;88.45
35577;BME280;21680;52.400;16.920;2022-12-18T04:25:42;102603.54;;;-7.41;88.60
35577;BME280;21680;52.400;16.920;2022-12-18T04:28:07;102607.81;;;-7.42;88.71
35577;BME280;21680;52.400;16.920;2022-12-18T04:30:33;102608.32;;;-7.39;88.69
35577;BME280;21680;52.400;16.920;2022-12-18T04:32:58;102610.02;;;-7.37;88.79
35577;BME280;21680;52.400;16.920;2022-12-18T04:35:23;102613.02;;;-7.36;88.64
35577;BME280;21680;52.400;16.920;2022-12-18T04:37:48;102618.90;;;-7.36;88.87
35577;BME280;21680;52.400;16.920;2022-12-18T04:40:14;102628.96;;;-7.37;88.74
35577;BME280;21680;52.400;16.920;2022-12-18T04:42:40;102626.83;;;-7.35;88.76
35577;BME280;21680;52.400;16.920;2022-12-18T04:45:06;102629.66;;;-7.31;88.99
35577;BME280;21680;52.400;16.920;2022-12-18T04:47:32;102632.13;;;-7.31;88.75
35577;BME280;21680;52.400;16.920;2022-12-18T04:49:57;102625.98;;;-7.31;88.73
35577;BME280;21680;52.400;16.920;2022-12-18T04:52:22;102629.56;;;-7.30;88.93
35577;BME280;21680;52.400;16.920;2022-12-18T04:54:48;102636.91;;;-7.29;88.79
35577;BME280;21680;52.400;16.920;2022-12-18T04:57:13;102634.94;;;-7.30;88.72
35577;BME280;21680;52.400;16.920;2022-12-18T04:59:38;102633.05;;;-7.32;88.80
35577;BME280;21680;52.400;16.920;2022-12-18T05:02:04;102638.45;;;-7.35;88.60
35577;BME280;21680;52.400;16.920;2022-12-18T05:04:29;102641.39;;;-7.35;88.71
35577;BME280;21680;52.400;16.920;2022-12-18T05:06:55;102645.83;;;-7.36;88.69
35577;BME280;21680;52.400;16.920;2022-12-18T05:09:20;102652.00;;;-7.41;88.61
35577;BME280;21680;52.400;16.920;2022-12-18T05:11:45;102657.99;;;-7.42;88.81
35577;BME280;21680;52.400;16.920;2022-12-18T05:14:12;102667.08;;;-7.44;88.71
35577;BME280;21680;52.400;16.920;2022-12-18T05:16:37;102666.21;;;-7.52;88.72
35577;BME280;21680;52.400;16.920;2022-12-18T05:19:03;102665.96;;;-7.51;88.81
35577;BME280;21680;52.400;16.920;2022-12-18T05:21:28;102662.38;;;-7.47;88.97
35577;BME280;21680;52.400;16.920;2022-12-18T05:23:53;102667.45;;;-7.44;89.09
35577;BME280;21680;52.400;16.920;2022-12-18T05:26:19;102665.77;;;-7.40;89.22
35577;BME280;21680;52.400;16.920;2022-12-18T05:28:45;102669.48;;;-7.42;89.02
35577;BME280;21680;52.400;16.920;2022-12-18T05:31:11;102671.58;;;-7.44;88.86
35577;BME280;21680;52.400;16.920;2022-12-18T05:33:37;102670.24;;;-7.43;88.99
35577;BME280;21680;52.400;16.920;2022-12-18T05:36:05;102679.13;;;-7.40;89.01
35577;BME280;21680;52.400;16.920;2022-12-18T05:38:32;102678.59;;;-7.40;88.92
35577;BME280;21680;52.400;16.920;2022-12-18T05:40:58;102680.86;;;-7.40;88.93
35577;BME280;21680;52.400;16.920;2022-12-18T05:43:25;102684.17;;;-7.40;88.91
35577;BME280;21680;52.400;16.920;2022-12-18T05:45:51;102684.50;;;-7.40;88.91
35577;BME280;21680;52.400;16.920;2022-12-18T05:48:18;102691.39;;;-7.41;88.95
35577;BME280;21680;52.400;16.920;2022-12-18T05:50:44;102695.59;;;-7.40;88.97
35577;BME280;21680;52.400;16.920;2022-12-18T05:53:15;102698.59;;;-7.40;89.01
35577;BME280;21680;52.400;16.920;2022-12-18T05:55:41;102703.27;;;-7.40;89.10
35577;BME280;21680;52.400;16.920;2022-12-18T05:58:08;102701.58;;;-7.42;89.02
35577;BME280;21680;52.400;16.920;2022-12-18T06:00:36;102704.25;;;-7.38;89.26
35577;BME280;21680;52.400;16.920;2022-12-18T06:03:05;102712.20;;;-7.33;89.07
35577;BME280;21680;52.400;16.920;2022-12-18T06:05:35;102718.56;;;-7.29;89.23
35577;BME280;21680;52.400;16.920;2022-12-18T06:08:01;102720.69;;;-7.28;89.21
35577;BME280;21680;52.400;16.920;2022-12-18T06:10:26;102724.30;;;-7.29;89.16
35577;BME280;21680;52.400;16.920;2022-12-18T06:12:51;102729.90;;;-7.31;89.08
35577;BME280;21680;52.400;16.920;2022-12-18T06:15:17;102730.08;;;-7.33;88.98
35577;BME280;21680;52.400;16.920;2022-12-18T06:17:42;102739.38;;;-7.34;88.95
35577;BME280;21680;52.400;16.920;2022-12-18T06:20:07;102748.53;;;-7.38;89.05
35577;BME280;21680;52.400;16.920;2022-12-18T06:22:33;102749.27;;;-7.43;89.17
35577;BME280;21680;52.400;16.920;2022-12-18T06:24:59;102747.38;;;-7.51;89.07
35577;BME280;21680;52.400;16.920;2022-12-18T06:27:25;102747.68;;;-7.55;88.87
35577;BME280;21680;52.400;16.920;2022-12-18T06:29:51;102745.60;;;-7.55;89.04
35577;BME280;21680;52.400;16.920;2022-12-18T06:32:19;102748.85;;;-7.49;89.06
35577;BME280;21680;52.400;16.920;2022-12-18T06:34:44;102754.16;;;-7.45;89.30
35577;BME280;21680;52.400;16.920;2022-12-18T06:37:09;102753.44;;;-7.40;89.44
35577;BME280;21680;52.400;16.920;2022-12-18T06:39:35;102756.96;;;-7.37;89.31
35577;BME280;21680;52.400;16.920;2022-12-18T06:42:00;102754.52;;;-7.37;89.32
35577;BME280;21680;52.400;16.920;2022-12-18T06:44:26;102752.85;;;-7.36;89.20
35577;BME280;21680;52.400;16.920;2022-12-18T06:46:51;102750.90;;;-7.34;89.34
35577;BME280;21680;52.400;16.920;2022-12-18T06:49:16;102752.84;;;-7.33;89.31
35577;BME280;21680;52.400;16.920;2022-12-18T06:51:42;102756.50;;;-7.30;89.32
35577;BME280;21680;52.400;16.920;2022-12-18T06:54:07;102759.11;;;-7.30;89.33
35577;BME280;21680;52.400;16.920;2022-12-18T06:56:33;102766.33;;;-7.31;89.20
35577;BME280;21680;52.400;16.920;2022-12-18T06:58:58;102765.08;;;-7.32;89.12
35577;BME280;21680;52.400;16.920;2022-12-18T07:01:24;102770.08;;;-7.35;89.17
35577;BME280;21680;52.400;16.920;2022-12-18T07:03:54;102773.17;;;-7.38;89.18
35577;BME280;21680;52.400;16.920;2022-12-18T07:06:22;102778.79;;;-7.37;89.32
35577;BME280;21680;52.400;16.920;2022-12-18T07:08:49;102785.30;;;-7.39;89.17
35577;BME280;21680;52.400;16.920;2022-12-18T07:11:16;102784.77;;;-7.39;89.26
35577;BME280;21680;52.400;16.920;2022-12-18T07:13:42;102789.88;;;-7.38;89.32
35577;BME280;21680;52.400;16.920;2022-12-18T07:16:11;102798.27;;;-7.37;89.29
35577;BME280;21680;52.400;16.920;2022-12-18T07:18:36;102795.64;;;-7.37;89.29
35577;BME280;21680;52.400;16.920;2022-12-18T07:21:03;102797.92;;;-7.34;89.33
35577;BME280;21680;52.400;16.920;2022-12-18T07:23:29;102794.98;;;-7.31;89.38
35577;BME280;21680;52.400;16.920;2022-12-18T07:25:55;102794.79;;;-7.29;89.52
35577;BME280;21680;52.400;16.920;2022-12-18T07:28:20;102796.89;;;-7.26;89.53
35577;BME280;21680;52.400;16.920;2022-12-18T07:30:45;102794.85;;;-7.23;89.58
35577;BME280;21680;52.400;16.920;2022-12-18T07:33:10;102793.27;;;-7.20;89.52
35577;BME280;21680;52.400;16.920;2022-12-18T07:35:36;102797.05;;;-7.18;89.47
35577;BME280;21680;52.400;16.920;2022-12-18T07:38:01;102803.65;;;-7.21;89.41
35577;BME280;21680;52.400;16.920;2022-12-18T07:40:26;102811.55;;;-7.22;89.38
35577;BME280;21680;52.400;16.920;2022-12-18T07:42:51;102819.75;;;-7.24;89.49
35577;BME280;21680;52.400;16.920;2022-12-18T07:45:17;102826.02;;;-7.24;89.56
35577;BME280;21680;52.400;16.920;2022-12-18T07:47:42;102832.73;;;-7.25;89.40
35577;BME280;21680;52.400;16.920;2022-12-18T07:50:08;102839.66;;;-7.23;89.42
35577;BME280;21680;52.400;16.920;2022-12-18T07:52:34;102841.60;;;-7.22;89.58
35577;BME280;21680;52.400;16.920;2022-12-18T07:54:59;102844.14;;;-7.23;89.43
35577;BME280;21680;52.400;16.920;2022-12-18T07:57:25;102838.00;;;-7.21;89.67
35577;BME280;21680;52.400;16.920;2022-12-18T07:59:50;102843.73;;;-7.18;89.64
35577;BME280;21680;52.400;16.920;2022-12-18T08:02:15;102844.41;;;-7.16;89.65
35577;BME280;21680;52.400;16.920;2022-12-18T08:04:40;102849.08;;;-7.14;89.68
35577;BME280;21680;52.400;16.920;2022-12-18T08:07:06;102855.59;;;-7.12;89.73
35577;BME280;21680;52.400;16.920;2022-12-18T08:09:31;102862.07;;;-7.12;89.60
35577;BME280;21680;52.400;16.920;2022-12-18T08:11:56;102868.23;;;-7.13;89.59
35577;BME280;21680;52.400;16.920;2022-12-18T08:14:22;102870.38;;;-7.18;89.49
35577;BME280;21680;52.400;16.920;2022-12-18T08:16:47;102869.73;;;-7.17;89.56
35577;BME280;21680;52.400;16.920;2022-12-18T08:19:13;102874.09;;;-7.16;89.70
35577;BME280;21680;52.400;16.920;2022-12-18T08:21:38;102871.63;;;-7.14;89.65
35577;BME280;21680;52.400;16.920;2022-12-18T08:24:06;102870.80;;;-7.08;89.79
35577;BME280;21680;52.400;16.920;2022-12-18T08:26:33;102874.91;;;-7.01;89.90
35577;BME280;21680;52.400;16.920;2022-12-18T08:28:59;102867.98;;;-6.95;89.94
35577;BME280;21680;52.400;16.920;2022-12-18T08:31:26;102872.02;;;-6.89;90.02
35577;BME280;21680;52.400;16.920;2022-12-18T08:33:53;102869.84;;;-6.85;89.92
35577;BME280;21680;52.400;16.920;2022-12-18T08:36:19;102871.71;;;-6.83;89.71
35577;BME280;21680;52.400;16.920;2022-12-18T08:38:45;102869.42;;;-6.80;89.73
35577;BME280;21680;52.400;16.920;2022-12-18T08:41:12;102869.80;;;-6.80;89.82
35577;BME280;21680;52.400;16.920;2022-12-18T08:43:38;102870.26;;;-6.81;89.74
35577;BME280;21680;52.400;16.920;2022-12-18T08:46:23;102868.95;;;-6.79;89.88
35577;BME280;21680;52.400;16.920;2022-12-18T08:48:53;102862.11;;;-6.81;89.78
35577;BME280;21680;52.400;16.920;2022-12-18T08:51:20;102854.20;;;-6.77;89.92
35577;BME280;21680;52.400;16.920;2022-12-18T08:53:46;102850.60;;;-6.65;90.15
35577;BME280;21680;52.400;16.920;2022-12-18T08:56:13;102844.34;;;-6.53;90.29
35577;BME280;21680;52.400;16.920;2022-12-18T08:58:39;102847.09;;;-6.51;90.12
35577;BME280;21680;52.400;16.920;2022-12-18T09:01:07;102844.39;;;-6.49;90.13
35577;BME280;21680;52.400;16.920;2022-12-18T09:03:34;102837.14;;;-6.49;90.08
35577;BME280;21680;52.400;16.920;2022-12-18T09:05:59;102828.90;;;-6.44;90.31
35577;BME280;21680;52.400;16.920;2022-12-18T09:08:26;102821.76;;;-6.36;90.17
35577;BME280;21680;52.400;16.920;2022-12-18T09:10:51;102816.34;;;-6.28;90.32
35577;BME280;21680;52.400;16.920;2022-12-18T09:13:17;102820.98;;;-6.26;89.99
35577;BME280;21680;52.400;16.920;2022-12-18T09:15:51;102823.73;;;-6.23;90.13
35577;BME280;21680;52.400;16.920;2022-12-18T09:18:18;102824.38;;;-6.21;90.12
35577;BME280;21680;52.400;16.920;2022-12-18T09:20:45;102829.24;;;-6.18;90.20
35577;BME280;21680;52.400;16.920;2022-12-18T09:23:10;102830.16;;;-6.14;90.21
35577;BME280;21680;52.400;16.920;2022-12-18T09:25:37;102838.42;;;-6.10;90.20
35577;BME280;21680;52.400;16.920;2022-12-18T09:28:06;102835.48;;;-6.07;90.37
35577;BME280;21680;52.400;16.920;2022-12-18T09:30:32;102837.53;;;-6.02;90.44
35577;BME280;21680;52.400;16.920;2022-12-18T09:33:00;102841.70;;;-5.99;90.23
35577;BME280;21680;52.400;16.920;2022-12-18T09:35:25;102846.64;;;-5.95;90.32
35577;BME280;21680;52.400;16.920;2022-12-18T09:37:53;102849.88;;;-5.90;90.24
35577;BME280;21680;52.400;16.920;2022-12-18T09:40:21;102845.42;;;-5.85;90.31
35577;BME280;21680;52.400;16.920;2022-12-18T09:42:59;102842.14;;;-5.79;90.52
35577;BME280;21680;52.400;16.920;2022-12-18T09:45:26;102840.86;;;-5.71;90.54
35577;BME280;21680;52.400;16.920;2022-12-18T09:47:53;102840.88;;;-5.68;90.42
35577;BME280;21680;52.400;16.920;2022-12-18T09:50:27;102836.77;;;-5.67;90.25
35577;BME280;21680;52.400;16.920;2022-12-18T09:52:58;102842.99;;;-5.64;90.67
35577;BME280;21680;52.400;16.920;2022-12-18T09:55:29;102838.67;;;-5.64;90.25
35577;BME280;21680;52.400;16.920;2022-12-18T09:58:05;102837.91;;;-5.62;90.68
35577;BME280;21680;52.400;16.920;2022-12-18T10:00:31;102837.54;;;-5.56;90.44
35577;BME280;21680;52.400;16.920;2022-12-18T10:03:01;102837.29;;;-5.48;90.81
35577;BME280;21680;52.400;16.920;2022-12-18T10:08:51;102837.25;;;-5.40;90.52
35577;BME280;21680;52.400;16.920;2022-12-18T10:13:52;102835.35;;;-5.36;90.71
35577;BME280;21680;52.400;16.920;2022-12-18T10:16:47;102829.52;;;-5.35;90.49
35577;BME280;21680;52.400;16.920;2022-12-18T10:19:37;102833.46;;;-5.27;90.93
35577;BME280;21680;52.400;16.920;2022-12-18T10:22:19;102839.25;;;-5.19;90.90
35577;BME280;21680;52.400;16.920;2022-12-18T10:25:02;102844.45;;;-5.16;90.60
35577;BME280;21680;52.400;16.920;2022-12-18T10:27:29;102848.30;;;-5.16;90.53
35577;BME280;21680;52.400;16.920;2022-12-18T10:29:56;102849.16;;;-5.17;90.59
35577;BME280;21680;52.400;16.920;2022-12-18T10:32:24;102846.84;;;-5.14;90.86
35577;BME280;21680;52.400;16.920;2022-12-18T10:34:55;102837.73;;;-5.09;90.88
35577;BME280;21680;52.400;16.920;2022-12-18T10:37:24;102845.09;;;-5.02;90.68
35577;BME280;21680;52.400;16.920;2022-12-18T10:40:09;102848.41;;;-4.99;90.83
35577;BME280;21680;52.400;16.920;2022-12-18T10:42:36;102854.55;;;-4.95;90.90
35577;BME280;21680;52.400;16.920;2022-12-18T10:45:12;102855.59;;;-4.89;90.92
35577;BME280;21680;52.400;16.920;2022-12-18T10:47:49;102848.13;;;-4.84;90.90
35577;BME280;21680;52.400;16.920;2022-12-18T10:50:29;102845.26;;;-4.86;90.80
35577;BME280;21680;52.400;16.920;2022-12-18T10:53:03;102846.56;;;-4.85;90.84
35577;BME280;21680;52.400;16.920;2022-12-18T10:55:38;102847.89;;;-4.82;90.68
35577;BME280;21680;52.400;16.920;2022-12-18T10:58:25;102847.11;;;-4.81;90.89
35577;BME280;21680;52.400;16.920;2022-12-18T11:01:06;102841.96;;;-4.76;91.02
35577;BME280;21680;52.400;16.920;2022-12-18T11:06:09;102842.21;;;-4.65;90.89
35577;BME280;21680;52.400;16.920;2022-12-18T11:08:35;102840.39;;;-4.57;91.38
35577;BME280;21680;52.400;16.920;2022-12-18T11:11:01;102828.70;;;-4.50;91.23
35577;BME280;21680;52.400;16.920;2022-12-18T11:13:28;102822.45;;;-4.53;90.61
35577;BME280;21680;52.400;16.920;2022-12-18T11:15:54;102815.86;;;-4.55;90.93
35577;BME280;21680;52.400;16.920;2022-12-18T11:18:32;102820.33;;;-4.53;91.03
35577;BME280;21680;52.400;16.920;2022-12-18T11:21:08;102824.14;;;-4.51;90.77
35577;BME280;21680;52.400;16.920;2022-12-18T11:23:35;102832.73;;;-4.47;90.94
35577;BME280;21680;52.400;16.920;2022-12-18T11:26:03;102826.89;;;-4.42;90.79
35577;BME280;21680;52.400;16.920;2022-12-18T11:29:07;102824.46;;;-4.38;91.01
35577;BME280;21680;52.400;16.920;2022-12-18T11:31:33;102822.42;;;-4.34;91.00
35577;BME280;21680;52.400;16.920;2022-12-18T11:34:27;102819.60;;;-4.35;90.54
35577;BME280;21680;52.400;16.920;2022-12-18T11:36:50;102812.41;;;-4.35;90.76
35577;BME280;21680;52.400;16.920;2022-12-18T11:39:28;102810.95;;;-4.33;90.90
35577;BME280;21680;52.400;16.920;2022-12-18T11:42:00;102816.17;;;-4.30;90.86
35577;BME280;21680;52.400;16.920;2022-12-18T11:44:46;102816.60;;;-4.28;90.86
35577;BME280;21680;52.400;16.920;2022-12-18T11:47:21;102814.09;;;-4.26;90.96
35577;BME280;21680;52.400;16.920;2022-12-18T11:49:51;102815.31;;;-4.26;90.85
35577;BME280;21680;52.400;16.920;2022-12-18T11:52:29;102821.45;;;-4.22;90.80
35577;BME280;21680;52.400;16.920;2022-12-18T11:54:59;102819.68;;;-4.19;90.72
35577;BME280;21680;52.400;16.920;2022-12-18T11:57:45;102826.62;;;-4.16;90.63
35577;BME280;21680;52.400;16.920;2022-12-18T12:00:21;102827.70;;;-4.19;90.36
35577;BME280;21680;52.400;16.920;2022-12-18T12:03:05;102833.33;;;-4.22;90.49
35577;BME280;21680;52.400;16.920;2022-12-18T12:06:00;102838.52;;;-4.23;90.61
35577;BME280;21680;52.400;16.920;2022-12-18T12:08:48;102830.20;;;-4.21;90.60
35577;BME280;21680;52.400;16.920;2022-12-18T12:11:39;102831.42;;;-4.18;90.42
35577;BME280;21680;52.400;16.920;2022-12-18T12:16:47;102844.02;;;-4.14;90.39
35577;BME280;21680;52.400;16.920;2022-12-18T12:19:44;102841.63;;;-4.10;90.39
35577;BME280;21680;52.400;16.920;2022-12-18T12:22:54;102845.31;;;-4.03;90.62
35577;BME280;21680;52.400;16.920;2022-12-18T12:25:39;102845.69;;;-3.99;90.65
35577;BME280;21680;52.400;16.920;2022-12-18T12:28:43;102843.83;;;-3.94;90.70
35577;BME280;21680;52.400;16.920;2022-12-18T12:34:12;102854.20;;;-3.93;90.57
35577;BME280;21680;52.400;16.920;2022-12-18T12:39:31;102848.91;;;-3.87;90.76
35577;BME280;21680;52.400;16.920;2022-12-18T12:41:58;102842.84;;;-3.90;90.62
35577;BME280;21680;52.400;16.920;2022-12-18T12:44:45;102842.33;;;-3.86;90.59
35577;BME280;21680;52.400;16.920;2022-12-18T12:47:17;102845.75;;;-3.84;90.46
35577;BME280;21680;52.400;16.920;2022-12-18T12:49:45;102848.46;;;-3.86;90.22
35577;BME280;21680;52.400;16.920;2022-12-18T12:52:37;102841.84;;;-3.89;90.49
35577;BME280;21680;52.400;16.920;2022-12-18T12:55:22;102843.48;;;-3.91;90.28
35577;BME280;21680;52.400;16.920;2022-12-18T13:06:28;102835.59;;;-3.88;90.11
35577;BME280;21680;52.400;16.920;2022-12-18T13:09:00;102825.30;;;-3.84;90.21
35577;BME280;21680;52.400;16.920;2022-12-18T13:11:47;102820.92;;;-3.85;89.87
35577;BME280;21680;52.400;16.920;2022-12-18T13:14:36;102822.77;;;-3.89;89.96
35577;BME280;21680;52.400;16.920;2022-12-18T13:20:06;102839.73;;;-3.99;90.12
35577;BME280;21680;52.400;16.920;2022-12-18T13:22:49;102836.42;;;-3.96;89.89
35577;BME280;21680;52.400;16.920;2022-12-18T13:25:34;102830.23;;;-3.97;90.19
35577;BME280;21680;52.400;16.920;2022-12-18T13:28:14;102831.85;;;-4.07;89.95
35577;BME280;21680;52.400;16.920;2022-12-18T13:38:33;102831.73;;;-4.06;89.92
35577;BME280;21680;52.400;16.920;2022-12-18T13:43:51;102840.25;;;-4.16;89.72
35577;BME280;21680;52.400;16.920;2022-12-18T13:51:19;102848.02;;;-4.29;89.58
35577;BME280;21680;52.400;16.920;2022-12-18T13:53:55;102852.94;;;-4.31;89.53
35577;BME280;21680;52.400;16.920;2022-12-18T13:56:24;102852.80;;;-4.34;89.59
35577;BME280;21680;52.400;16.920;2022-12-18T13:59:12;102855.58;;;-4.37;89.64
35577;BME280;21680;52.400;16.920;2022-12-18T14:01:51;102851.49;;;-4.42;89.67